PWSweather.com
Personal Weather Stations
Station Observations
WD4JKH
Forsyth, GA 31029

Forsyth, GA 31029

Lat: 33.033225, Lon: -83.927995

Elevation: 709

Station Type: Davis Vantage VUE

High Low Average
Temperature 65.0°F18.3°C 33.1°F0.6°C 49.8°F9.9°C
Dew Point 43.7°F6.5°C 25.0°F-3.9°C 33.6°F0.9°C
Winds 6.7 mph 10.8 kmh Calm Calm 2.0 mph SE3.2 kmh SE
Wind Gusts 15.0 mph24.1 kmh -- 4.0 mph6.4 kmh
Humidity 74% 39% 54%
Pressure 30.39 in1029.1 mb 30.27 in1025.1 mb -
Precipitation 0.00 in0.0 mm - -
Hour Temp Dew Point Humidity Winds Wind Gusts Pressure Precip Precip Rate Daily Precip Total
12:03 AM 42.6°F5.9°C 25.2°F-3.8°C 50% 1.0 mph SE1.6 kmh SE 4.0 mph6.4 kmh 30.38 in1028.8 mb 0.00 in0.0 mm 0.00 in0.0 mm 0.00 in0.0 mm
12:08 AM 42.7°F5.9°C 25.3°F-3.7°C 50% 1.4 mph SE2.3 kmh SE 2.0 mph3.2 kmh 30.38 in1028.8 mb 0.00 in0.0 mm 0.00 in0.0 mm 0.00 in0.0 mm
12:13 AM 42.6°F5.9°C 25.2°F-3.8°C 50% 1.0 mph SE1.6 kmh SE 2.0 mph3.2 kmh 30.38 in1028.8 mb 0.00 in0.0 mm 0.00 in0.0 mm 0.00 in0.0 mm
12:18 AM 42.7°F5.9°C 25.3°F-3.7°C 50% 1.1 mph SE1.8 kmh SE 3.0 mph4.8 kmh 30.37 in1028.4 mb 0.00 in0.0 mm 0.00 in0.0 mm 0.00 in0.0 mm
12:23 AM 42.6°F5.9°C 25.2°F-3.8°C 50% 1.0 mph SE1.6 kmh SE 3.0 mph4.8 kmh 30.37 in1028.4 mb 0.00 in0.0 mm 0.00 in0.0 mm 0.00 in0.0 mm
12:28 AM 42.6°F5.9°C 25.2°F-3.8°C 50% 1.2 mph SE1.9 kmh SE 3.0 mph4.8 kmh 30.37 in1028.4 mb 0.00 in0.0 mm 0.00 in0.0 mm 0.00 in0.0 mm
12:33 AM 42.4°F5.8°C 25.0°F-3.9°C 50% 1.0 mph SE1.6 kmh SE 2.0 mph3.2 kmh 30.37 in1028.4 mb 0.00 in0.0 mm 0.00 in0.0 mm 0.00 in0.0 mm
12:38 AM 42.2°F5.7°C 25.3°F-3.7°C 51% 1.0 mph SE1.6 kmh SE 2.0 mph3.2 kmh 30.37 in1028.4 mb 0.00 in0.0 mm 0.00 in0.0 mm 0.00 in0.0 mm
12:43 AM 42.1°F5.6°C 25.3°F-3.7°C 51% 1.0 mph SE1.6 kmh SE 2.0 mph3.2 kmh 30.37 in1028.4 mb 0.00 in0.0 mm 0.00 in0.0 mm 0.00 in0.0 mm
12:48 AM 42.0°F5.6°C 25.2°F-3.8°C 51% 1.0 mph SE1.6 kmh SE 1.0 mph1.6 kmh 30.37 in1028.4 mb 0.00 in0.0 mm 0.00 in0.0 mm 0.00 in0.0 mm
12:53 AM 42.0°F5.6°C 25.6°F-3.6°C 52% 1.1 mph SE1.8 kmh SE 2.0 mph3.2 kmh 30.37 in1028.4 mb 0.00 in0.0 mm 0.00 in0.0 mm 0.00 in0.0 mm
12:58 AM 41.9°F5.5°C 25.5°F-3.6°C 52% 1.0 mph SE1.6 kmh SE 2.0 mph3.2 kmh 30.37 in1028.4 mb 0.00 in0.0 mm 0.00 in0.0 mm 0.00 in0.0 mm
01:03 AM 41.9°F5.5°C 25.5°F-3.6°C 52% 1.0 mph SE1.6 kmh SE 2.0 mph3.2 kmh 30.37 in1028.4 mb 0.00 in0.0 mm 0.00 in0.0 mm 0.00 in0.0 mm
01:08 AM 41.8°F5.4°C 25.4°F-3.7°C 52% Calm Calm 2.0 mph3.2 kmh 30.38 in1028.8 mb 0.00 in0.0 mm 0.00 in0.0 mm 0.00 in0.0 mm
01:13 AM 41.7°F5.4°C 25.8°F-3.4°C 53% 1.4 mph SSE2.3 kmh SSE 2.0 mph3.2 kmh 30.38 in1028.8 mb 0.00 in0.0 mm 0.00 in0.0 mm 0.00 in0.0 mm
01:18 AM 41.6°F5.3°C 25.7°F-3.5°C 53% 1.0 mph SSE1.6 kmh SSE 2.0 mph3.2 kmh 30.38 in1028.8 mb 0.00 in0.0 mm 0.00 in0.0 mm 0.00 in0.0 mm
01:23 AM 41.6°F5.3°C 25.7°F-3.5°C 53% 1.6 mph S2.6 kmh S 3.0 mph4.8 kmh 30.38 in1028.8 mb 0.00 in0.0 mm 0.00 in0.0 mm 0.00 in0.0 mm
01:28 AM 41.6°F5.3°C 25.7°F-3.5°C 53% 1.3 mph SSE2.1 kmh SSE 3.0 mph4.8 kmh 30.38 in1028.8 mb 0.00 in0.0 mm 0.00 in0.0 mm 0.00 in0.0 mm
01:33 AM 41.6°F5.3°C 25.7°F-3.5°C 53% 1.4 mph SSE2.3 kmh SSE 3.0 mph4.8 kmh 30.37 in1028.4 mb 0.00 in0.0 mm 0.00 in0.0 mm 0.00 in0.0 mm
01:38 AM 41.5°F5.3°C 25.6°F-3.6°C 53% 2.1 mph SSE3.4 kmh SSE 3.0 mph4.8 kmh 30.37 in1028.4 mb 0.00 in0.0 mm 0.00 in0.0 mm 0.00 in0.0 mm
01:43 AM 41.4°F5.2°C 26.0°F-3.3°C 54% 1.9 mph SSE3.1 kmh SSE 4.0 mph6.4 kmh 30.37 in1028.4 mb 0.00 in0.0 mm 0.00 in0.0 mm 0.00 in0.0 mm
01:48 AM 41.2°F5.1°C 25.8°F-3.4°C 54% 1.9 mph SSE3.1 kmh SSE 4.0 mph6.4 kmh 30.37 in1028.4 mb 0.00 in0.0 mm 0.00 in0.0 mm 0.00 in0.0 mm
01:53 AM 41.1°F5.1°C 25.7°F-3.5°C 54% Calm Calm 4.0 mph6.4 kmh 30.37 in1028.4 mb 0.00 in0.0 mm 0.00 in0.0 mm 0.00 in0.0 mm
01:58 AM 41.0°F5.0°C 25.6°F-3.6°C 54% 1.2 mph SSE1.9 kmh SSE 4.0 mph6.4 kmh 30.36 in1028.1 mb 0.00 in0.0 mm 0.00 in0.0 mm 0.00 in0.0 mm
02:03 AM 41.0°F5.0°C 26.1°F-3.3°C 55% 1.6 mph SSE2.6 kmh SSE 4.0 mph6.4 kmh 30.36 in1028.1 mb 0.00 in0.0 mm 0.00 in0.0 mm 0.00 in0.0 mm
02:08 AM 41.0°F5.0°C 26.1°F-3.3°C 55% 1.6 mph SSE2.6 kmh SSE 3.0 mph4.8 kmh 30.36 in1028.1 mb 0.00 in0.0 mm 0.00 in0.0 mm 0.00 in0.0 mm
02:13 AM 41.1°F5.1°C 25.7°F-3.5°C 54% 1.6 mph SSE2.6 kmh SSE 3.0 mph4.8 kmh 30.36 in1028.1 mb 0.00 in0.0 mm 0.00 in0.0 mm 0.00 in0.0 mm
02:18 AM 41.1°F5.1°C 25.7°F-3.5°C 54% 1.4 mph SSE2.3 kmh SSE 3.0 mph4.8 kmh 30.36 in1028.1 mb 0.00 in0.0 mm 0.00 in0.0 mm 0.00 in0.0 mm
02:23 AM 41.1°F5.1°C 26.2°F-3.2°C 55% 1.3 mph SSE2.1 kmh SSE 3.0 mph4.8 kmh 30.36 in1028.1 mb 0.00 in0.0 mm 0.00 in0.0 mm 0.00 in0.0 mm
02:28 AM 41.1°F5.1°C 25.7°F-3.5°C 54% 1.1 mph S1.8 kmh S 3.0 mph4.8 kmh 30.36 in1028.1 mb 0.00 in0.0 mm 0.00 in0.0 mm 0.00 in0.0 mm
02:33 AM 41.0°F5.0°C 26.1°F-3.3°C 55% 1.3 mph S2.1 kmh S 3.0 mph4.8 kmh 30.35 in1027.8 mb 0.00 in0.0 mm 0.00 in0.0 mm 0.00 in0.0 mm
02:38 AM 40.8°F4.9°C 25.9°F-3.4°C 55% 1.6 mph S2.6 kmh S 3.0 mph4.8 kmh 30.35 in1027.8 mb 0.00 in0.0 mm 0.00 in0.0 mm 0.00 in0.0 mm
02:43 AM 40.6°F4.8°C 26.2°F-3.2°C 56% 2.1 mph SSE3.4 kmh SSE 4.0 mph6.4 kmh 30.35 in1027.8 mb 0.00 in0.0 mm 0.00 in0.0 mm 0.00 in0.0 mm
02:48 AM 40.6°F4.8°C 26.1°F-3.3°C 56% 1.6 mph SSE2.6 kmh SSE 4.0 mph6.4 kmh 30.35 in1027.8 mb 0.00 in0.0 mm 0.00 in0.0 mm 0.00 in0.0 mm
02:53 AM 40.5°F4.7°C 26.1°F-3.3°C 56% 1.1 mph SSE1.8 kmh SSE 4.0 mph6.4 kmh 30.35 in1027.8 mb 0.00 in0.0 mm 0.00 in0.0 mm 0.00 in0.0 mm
02:58 AM 40.4°F4.7°C 25.9°F-3.4°C 56% 1.0 mph SSE1.6 kmh SSE 4.0 mph6.4 kmh 30.35 in1027.8 mb 0.00 in0.0 mm 0.00 in0.0 mm 0.00 in0.0 mm
03:03 AM 40.2°F4.6°C 25.7°F-3.5°C 56% 1.0 mph S1.6 kmh S 3.0 mph4.8 kmh 30.35 in1027.8 mb 0.00 in0.0 mm 0.00 in0.0 mm 0.00 in0.0 mm
03:08 AM 40.1°F4.5°C 26.1°F-3.3°C 57% 1.3 mph SSE2.1 kmh SSE 2.0 mph3.2 kmh 30.35 in1027.8 mb 0.00 in0.0 mm 0.00 in0.0 mm 0.00 in0.0 mm
03:13 AM 40.0°F4.4°C 26.0°F-3.3°C 57% 1.1 mph S1.8 kmh S 3.0 mph4.8 kmh 30.34 in1027.4 mb 0.00 in0.0 mm 0.00 in0.0 mm 0.00 in0.0 mm
03:18 AM 39.9°F4.4°C 25.9°F-3.4°C 57% 1.2 mph SSE1.9 kmh SSE 3.0 mph4.8 kmh 30.35 in1027.8 mb 0.00 in0.0 mm 0.00 in0.0 mm 0.00 in0.0 mm
03:23 AM 39.8°F4.3°C 26.2°F-3.2°C 58% 1.0 mph S1.6 kmh S 3.0 mph4.8 kmh 30.35 in1027.8 mb 0.00 in0.0 mm 0.00 in0.0 mm 0.00 in0.0 mm
03:28 AM 39.6°F4.2°C 26.1°F-3.3°C 58% 1.0 mph SSE1.6 kmh SSE 2.0 mph3.2 kmh 30.35 in1027.8 mb 0.00 in0.0 mm 0.00 in0.0 mm 0.00 in0.0 mm
03:33 AM 39.4°F4.1°C 25.9°F-3.4°C 58% Calm Calm 2.0 mph3.2 kmh 30.35 in1027.8 mb 0.00 in0.0 mm 0.00 in0.0 mm 0.00 in0.0 mm
03:38 AM 39.1°F3.9°C 26.0°F-3.3°C 59% Calm Calm 1.0 mph1.6 kmh 30.35 in1027.8 mb 0.00 in0.0 mm 0.00 in0.0 mm 0.00 in0.0 mm
03:43 AM 38.5°F3.6°C 25.4°F-3.7°C 59% Calm Calm 1.0 mph1.6 kmh 30.35 in1027.8 mb 0.00 in0.0 mm 0.00 in0.0 mm 0.00 in0.0 mm
03:48 AM 37.9°F3.3°C 25.7°F-3.5°C 61% Calm Calm -- 30.35 in1027.8 mb 0.00 in0.0 mm 0.00 in0.0 mm 0.00 in0.0 mm
03:53 AM 37.8°F3.2°C 26.0°F-3.3°C 62% Calm Calm -- 30.35 in1027.8 mb 0.00 in0.0 mm 0.00 in0.0 mm 0.00 in0.0 mm
03:58 AM 37.8°F3.2°C 25.6°F-3.6°C 61% Calm Calm -- 30.36 in1028.1 mb 0.00 in0.0 mm 0.00 in0.0 mm 0.00 in0.0 mm
04:03 AM 37.7°F3.2°C 25.8°F-3.4°C 62% Calm Calm -- 30.36 in1028.1 mb 0.00 in0.0 mm 0.00 in0.0 mm 0.00 in0.0 mm
04:08 AM 37.7°F3.2°C 25.8°F-3.4°C 62% Calm Calm -- 30.36 in1028.1 mb 0.00 in0.0 mm 0.00 in0.0 mm 0.00 in0.0 mm
04:13 AM 37.7°F3.2°C 25.9°F-3.4°C 62% Calm Calm -- 30.36 in1028.1 mb 0.00 in0.0 mm 0.00 in0.0 mm 0.00 in0.0 mm
04:18 AM 38.0°F3.3°C 26.2°F-3.2°C 62% Calm Calm -- 30.36 in1028.1 mb 0.00 in0.0 mm 0.00 in0.0 mm 0.00 in0.0 mm
04:23 AM 38.3°F3.5°C 26.1°F-3.3°C 61% Calm Calm -- 30.36 in1028.1 mb 0.00 in0.0 mm 0.00 in0.0 mm 0.00 in0.0 mm
04:28 AM 38.2°F3.4°C 25.9°F-3.4°C 61% Calm Calm -- 30.36 in1028.1 mb 0.00 in0.0 mm 0.00 in0.0 mm 0.00 in0.0 mm
04:33 AM 38.0°F3.3°C 25.7°F-3.5°C 61% Calm Calm -- 30.36 in1028.1 mb 0.00 in0.0 mm 0.00 in0.0 mm 0.00 in0.0 mm
04:38 AM 37.4°F3.0°C 25.6°F-3.6°C 62% Calm Calm -- 30.36 in1028.1 mb 0.00 in0.0 mm 0.00 in0.0 mm 0.00 in0.0 mm
04:43 AM 37.1°F2.8°C 26.1°F-3.3°C 64% Calm Calm -- 30.36 in1028.1 mb 0.00 in0.0 mm 0.00 in0.0 mm 0.00 in0.0 mm
04:48 AM 36.5°F2.5°C 26.2°F-3.2°C 66% 1.0 mph SE1.6 kmh SE 1.0 mph1.6 kmh 30.37 in1028.4 mb 0.00 in0.0 mm 0.00 in0.0 mm 0.00 in0.0 mm
04:53 AM 35.9°F2.2°C 26.1°F-3.3°C 67% 1.0 mph WNW1.6 kmh WNW 2.0 mph3.2 kmh 30.37 in1028.4 mb 0.00 in0.0 mm 0.00 in0.0 mm 0.00 in0.0 mm
04:58 AM 35.7°F2.1°C 25.9°F-3.4°C 67% 1.0 mph WNW1.6 kmh WNW 2.0 mph3.2 kmh 30.37 in1028.4 mb 0.00 in0.0 mm 0.00 in0.0 mm 0.00 in0.0 mm
05:03 AM 35.9°F2.2°C 25.7°F-3.5°C 66% Calm Calm 2.0 mph3.2 kmh 30.37 in1028.4 mb 0.00 in0.0 mm 0.00 in0.0 mm 0.00 in0.0 mm
05:07 AM 35.9°F2.2°C 25.6°F-3.6°C 66% Calm Calm 2.0 mph3.2 kmh 30.37 in1028.4 mb 0.00 in0.0 mm 0.00 in0.0 mm 0.00 in0.0 mm
05:12 AM 35.8°F2.1°C 26.0°F-3.3°C 67% Calm Calm 1.0 mph1.6 kmh 30.37 in1028.4 mb 0.00 in0.0 mm 0.00 in0.0 mm 0.00 in0.0 mm
05:17 AM 35.9°F2.2°C 26.1°F-3.3°C 67% Calm Calm 1.0 mph1.6 kmh 30.37 in1028.4 mb 0.00 in0.0 mm 0.00 in0.0 mm 0.00 in0.0 mm
05:22 AM 36.1°F2.3°C 26.3°F-3.2°C 67% 1.2 mph N1.9 kmh N 2.0 mph3.2 kmh 30.37 in1028.4 mb 0.00 in0.0 mm 0.00 in0.0 mm 0.00 in0.0 mm
05:27 AM 35.9°F2.2°C 26.0°F-3.3°C 67% 1.2 mph NNE1.9 kmh NNE 2.0 mph3.2 kmh 30.37 in1028.4 mb 0.00 in0.0 mm 0.00 in0.0 mm 0.00 in0.0 mm
05:32 AM 35.4°F1.9°C 26.0°F-3.3°C 68% 1.0 mph N1.6 kmh N 2.0 mph3.2 kmh 30.38 in1028.8 mb 0.00 in0.0 mm 0.00 in0.0 mm 0.00 in0.0 mm
05:37 AM 34.9°F1.6°C 25.8°F-3.4°C 69% Calm Calm 2.0 mph3.2 kmh 30.38 in1028.8 mb 0.00 in0.0 mm 0.00 in0.0 mm 0.00 in0.0 mm
05:42 AM 34.8°F1.6°C 25.7°F-3.5°C 69% Calm Calm 2.0 mph3.2 kmh 30.38 in1028.8 mb 0.00 in0.0 mm 0.00 in0.0 mm 0.00 in0.0 mm
05:47 AM 34.9°F1.6°C 25.8°F-3.4°C 69% Calm Calm 2.0 mph3.2 kmh 30.38 in1028.8 mb 0.00 in0.0 mm 0.00 in0.0 mm 0.00 in0.0 mm
05:52 AM 35.5°F1.9°C 26.0°F-3.3°C 68% Calm Calm 1.0 mph1.6 kmh 30.38 in1028.8 mb 0.00 in0.0 mm 0.00 in0.0 mm 0.00 in0.0 mm
05:57 AM 35.6°F2.0°C 26.2°F-3.2°C 68% Calm Calm -- 30.38 in1028.8 mb 0.00 in0.0 mm 0.00 in0.0 mm 0.00 in0.0 mm
06:02 AM 35.0°F1.7°C 25.9°F-3.4°C 69% Calm Calm 1.0 mph1.6 kmh 30.38 in1028.8 mb 0.00 in0.0 mm 0.00 in0.0 mm 0.00 in0.0 mm
06:07 AM 34.8°F1.6°C 25.7°F-3.5°C 69% Calm Calm 1.0 mph1.6 kmh 30.38 in1028.8 mb 0.00 in0.0 mm 0.00 in0.0 mm 0.00 in0.0 mm
06:12 AM 34.5°F1.4°C 25.8°F-3.4°C 70% Calm Calm 1.0 mph1.6 kmh 30.38 in1028.8 mb 0.00 in0.0 mm 0.00 in0.0 mm 0.00 in0.0 mm
06:17 AM 34.1°F1.2°C 25.7°F-3.5°C 71% Calm Calm 1.0 mph1.6 kmh 30.38 in1028.8 mb 0.00 in0.0 mm 0.00 in0.0 mm 0.00 in0.0 mm
06:22 AM 33.7°F0.9°C 25.7°F-3.5°C 72% Calm Calm -- 30.38 in1028.8 mb 0.00 in0.0 mm 0.00 in0.0 mm 0.00 in0.0 mm
06:27 AM 33.4°F0.8°C 25.7°F-3.5°C 73% Calm Calm -- 30.37 in1028.4 mb 0.00 in0.0 mm 0.00 in0.0 mm 0.00 in0.0 mm
06:32 AM 33.2°F0.7°C 25.9°F-3.4°C 74% Calm Calm -- 30.37 in1028.4 mb 0.00 in0.0 mm 0.00 in0.0 mm 0.00 in0.0 mm
06:37 AM 33.1°F0.6°C 25.8°F-3.4°C 74% 1.0 mph N1.6 kmh N 1.0 mph1.6 kmh 30.37 in1028.4 mb 0.00 in0.0 mm 0.00 in0.0 mm 0.00 in0.0 mm
06:42 AM 33.3°F0.7°C 25.6°F-3.6°C 73% 1.0 mph N1.6 kmh N 1.0 mph1.6 kmh 30.37 in1028.4 mb 0.00 in0.0 mm 0.00 in0.0 mm 0.00 in0.0 mm
06:47 AM 33.6°F0.9°C 25.9°F-3.4°C 73% 1.1 mph NNE1.8 kmh NNE 2.0 mph3.2 kmh 30.37 in1028.4 mb 0.00 in0.0 mm 0.00 in0.0 mm 0.00 in0.0 mm
06:52 AM 33.8°F1.0°C 26.1°F-3.3°C 73% Calm Calm 2.0 mph3.2 kmh 30.37 in1028.4 mb 0.00 in0.0 mm 0.00 in0.0 mm 0.00 in0.0 mm
06:57 AM 34.1°F1.2°C 26.4°F-3.1°C 73% Calm Calm 2.0 mph3.2 kmh 30.37 in1028.4 mb 0.00 in0.0 mm 0.00 in0.0 mm 0.00 in0.0 mm
07:02 AM 34.3°F1.3°C 26.3°F-3.2°C 72% Calm Calm 2.0 mph3.2 kmh 30.37 in1028.4 mb 0.00 in0.0 mm 0.00 in0.0 mm 0.00 in0.0 mm
07:07 AM 34.3°F1.3°C 26.3°F-3.2°C 72% Calm Calm 1.0 mph1.6 kmh 30.38 in1028.8 mb 0.00 in0.0 mm 0.00 in0.0 mm 0.00 in0.0 mm
07:12 AM 34.7°F1.5°C 26.7°F-2.9°C 72% 1.0 mph NE1.6 kmh NE 1.0 mph1.6 kmh 30.38 in1028.8 mb 0.00 in0.0 mm 0.00 in0.0 mm 0.00 in0.0 mm
07:17 AM 34.9°F1.6°C 26.5°F-3.1°C 71% Calm Calm 1.0 mph1.6 kmh 30.37 in1028.4 mb 0.00 in0.0 mm 0.00 in0.0 mm 0.00 in0.0 mm
07:22 AM 35.0°F1.7°C 26.3°F-3.2°C 70% Calm Calm 1.0 mph1.6 kmh 30.38 in1028.8 mb 0.00 in0.0 mm 0.00 in0.0 mm 0.00 in0.0 mm
07:27 AM 35.1°F1.7°C 26.0°F-3.3°C 69% Calm Calm 1.0 mph1.6 kmh 30.38 in1028.8 mb 0.00 in0.0 mm 0.00 in0.0 mm 0.00 in0.0 mm
07:32 AM 35.1°F1.7°C 25.9°F-3.4°C 69% Calm Calm 1.0 mph1.6 kmh 30.38 in1028.8 mb 0.00 in0.0 mm 0.00 in0.0 mm 0.00 in0.0 mm
07:37 AM 35.3°F1.8°C 26.2°F-3.2°C 69% Calm Calm -- 30.38 in1028.8 mb 0.00 in0.0 mm 0.00 in0.0 mm 0.00 in0.0 mm
07:42 AM 35.5°F1.9°C 26.1°F-3.3°C 68% 1.0 mph ENE1.6 kmh ENE 1.0 mph1.6 kmh 30.38 in1028.8 mb 0.00 in0.0 mm 0.00 in0.0 mm 0.00 in0.0 mm
07:47 AM 36.0°F2.2°C 26.1°F-3.3°C 67% Calm Calm 1.0 mph1.6 kmh 30.38 in1028.8 mb 0.00 in0.0 mm 0.00 in0.0 mm 0.00 in0.0 mm
07:52 AM 36.3°F2.4°C 26.1°F-3.3°C 66% Calm Calm 1.0 mph1.6 kmh 30.38 in1028.8 mb 0.00 in0.0 mm 0.00 in0.0 mm 0.00 in0.0 mm
07:57 AM 36.6°F2.6°C 25.9°F-3.4°C 65% Calm Calm 1.0 mph1.6 kmh 30.38 in1028.8 mb 0.00 in0.0 mm 0.00 in0.0 mm 0.00 in0.0 mm
08:02 AM 36.9°F2.7°C 25.9°F-3.4°C 64% 1.0 mph ESE1.6 kmh ESE 1.0 mph1.6 kmh 30.38 in1028.8 mb 0.00 in0.0 mm 0.00 in0.0 mm 0.00 in0.0 mm
08:07 AM 37.4°F3.0°C 26.7°F-2.9°C 65% 1.0 mph SE1.6 kmh SE 2.0 mph3.2 kmh 30.38 in1028.8 mb 0.00 in0.0 mm 0.00 in0.0 mm 0.00 in0.0 mm
08:12 AM 37.9°F3.3°C 27.3°F-2.6°C 65% Calm Calm 2.0 mph3.2 kmh 30.39 in1029.1 mb 0.00 in0.0 mm 0.00 in0.0 mm 0.00 in0.0 mm
08:17 AM 38.2°F3.4°C 27.5°F-2.5°C 65% Calm Calm 2.0 mph3.2 kmh 30.39 in1029.1 mb 0.00 in0.0 mm 0.00 in0.0 mm 0.00 in0.0 mm
08:22 AM 38.3°F3.5°C 27.3°F-2.6°C 64% 1.2 mph SE1.9 kmh SE 2.0 mph3.2 kmh 30.38 in1028.8 mb 0.00 in0.0 mm 0.00 in0.0 mm 0.00 in0.0 mm
08:27 AM 38.5°F3.6°C 27.1°F-2.7°C 63% 1.1 mph SE1.8 kmh SE 2.0 mph3.2 kmh 30.38 in1028.8 mb 0.00 in0.0 mm 0.00 in0.0 mm 0.00 in0.0 mm
08:32 AM 38.9°F3.8°C 27.4°F-2.6°C 63% 1.5 mph SE2.4 kmh SE 2.0 mph3.2 kmh 30.38 in1028.8 mb 0.00 in0.0 mm 0.00 in0.0 mm 0.00 in0.0 mm
08:37 AM 39.3°F4.1°C 27.4°F-2.6°C 62% 1.4 mph SE2.3 kmh SE 3.0 mph4.8 kmh 30.38 in1028.8 mb 0.00 in0.0 mm 0.00 in0.0 mm 0.00 in0.0 mm
08:42 AM 39.9°F4.4°C 28.0°F-2.2°C 62% 1.0 mph SE1.6 kmh SE 3.0 mph4.8 kmh 30.38 in1028.8 mb 0.00 in0.0 mm 0.00 in0.0 mm 0.00 in0.0 mm
08:47 AM 40.5°F4.7°C 28.2°F-2.1°C 61% Calm Calm 3.0 mph4.8 kmh 30.38 in1028.8 mb 0.00 in0.0 mm 0.00 in0.0 mm 0.00 in0.0 mm
08:52 AM 41.2°F5.1°C 28.4°F-2.0°C 60% 1.1 mph SSE1.8 kmh SSE 3.0 mph4.8 kmh 30.39 in1029.1 mb 0.00 in0.0 mm 0.00 in0.0 mm 0.00 in0.0 mm
08:57 AM 41.7°F5.4°C 28.5°F-1.9°C 59% 1.3 mph SSE2.1 kmh SSE 3.0 mph4.8 kmh 30.39 in1029.1 mb 0.00 in0.0 mm 0.00 in0.0 mm 0.00 in0.0 mm
09:02 AM 42.2°F5.7°C 28.5°F-1.9°C 58% 2.3 mph S3.7 kmh S 5.0 mph8.0 kmh 30.38 in1028.8 mb 0.00 in0.0 mm 0.00 in0.0 mm 0.00 in0.0 mm
09:06 AM 42.4°F5.8°C 28.7°F-1.8°C 58% 2.0 mph S3.2 kmh S 6.0 mph9.7 kmh 30.39 in1029.1 mb 0.00 in0.0 mm 0.00 in0.0 mm 0.00 in0.0 mm
09:11 AM 42.4°F5.8°C 28.7°F-1.8°C 58% 2.4 mph S3.9 kmh S 6.0 mph9.7 kmh 30.39 in1029.1 mb 0.00 in0.0 mm 0.00 in0.0 mm 0.00 in0.0 mm
09:16 AM 42.7°F5.9°C 29.0°F-1.7°C 58% 3.9 mph S6.3 kmh S 7.0 mph11.3 kmh 30.39 in1029.1 mb 0.00 in0.0 mm 0.00 in0.0 mm 0.00 in0.0 mm
09:21 AM 43.0°F6.1°C 29.3°F-1.5°C 58% 4.9 mph S7.9 kmh S 11.0 mph17.7 kmh 30.37 in1028.4 mb 0.00 in0.0 mm 0.00 in0.0 mm 0.00 in0.0 mm
09:26 AM 43.2°F6.2°C 29.0°F-1.7°C 57% 5.5 mph S8.9 kmh S 11.0 mph17.7 kmh 30.37 in1028.4 mb 0.00 in0.0 mm 0.00 in0.0 mm 0.00 in0.0 mm
09:31 AM 43.6°F6.4°C 29.4°F-1.4°C 57% 2.8 mph S4.5 kmh S 11.0 mph17.7 kmh 30.38 in1028.8 mb 0.00 in0.0 mm 0.00 in0.0 mm 0.00 in0.0 mm
09:36 AM 44.2°F6.8°C 30.0°F-1.1°C 57% 1.4 mph SE2.3 kmh SE 11.0 mph17.7 kmh 30.38 in1028.8 mb 0.00 in0.0 mm 0.00 in0.0 mm 0.00 in0.0 mm
09:41 AM 45.0°F7.2°C 29.8°F-1.2°C 55% 2.8 mph SSE4.5 kmh SSE 11.0 mph17.7 kmh 30.38 in1028.8 mb 0.00 in0.0 mm 0.00 in0.0 mm 0.00 in0.0 mm
09:46 AM 45.7°F7.6°C 30.0°F-1.1°C 54% 2.7 mph S4.3 kmh S 11.0 mph17.7 kmh 30.38 in1028.8 mb 0.00 in0.0 mm 0.00 in0.0 mm 0.00 in0.0 mm
09:51 AM 46.2°F7.9°C 30.0°F-1.1°C 53% 5.4 mph SE8.7 kmh SE 11.0 mph17.7 kmh 30.38 in1028.8 mb 0.00 in0.0 mm 0.00 in0.0 mm 0.00 in0.0 mm
09:56 AM 46.6°F8.1°C 29.4°F-1.4°C 51% 5.3 mph S8.5 kmh S 11.0 mph17.7 kmh 30.38 in1028.8 mb 0.00 in0.0 mm 0.00 in0.0 mm 0.00 in0.0 mm
10:01 AM 47.0°F8.3°C 29.8°F-1.2°C 51% 5.4 mph S8.7 kmh S 11.0 mph17.7 kmh 30.38 in1028.8 mb 0.00 in0.0 mm 0.00 in0.0 mm 0.00 in0.0 mm
10:06 AM 47.5°F8.6°C 30.2°F-1.0°C 51% 4.7 mph S7.6 kmh S 11.0 mph17.7 kmh 30.37 in1028.4 mb 0.00 in0.0 mm 0.00 in0.0 mm 0.00 in0.0 mm
10:11 AM 47.7°F8.7°C 29.4°F-1.4°C 49% 6.5 mph S10.5 kmh S 12.0 mph19.3 kmh 30.37 in1028.4 mb 0.00 in0.0 mm 0.00 in0.0 mm 0.00 in0.0 mm
10:16 AM 47.7°F8.7°C 28.9°F-1.7°C 48% 6.7 mph S10.8 kmh S 12.0 mph19.3 kmh 30.37 in1028.4 mb 0.00 in0.0 mm 0.00 in0.0 mm 0.00 in0.0 mm
10:21 AM 47.7°F8.7°C 29.4°F-1.4°C 49% 5.2 mph S8.4 kmh S 15.0 mph24.1 kmh 30.37 in1028.4 mb 0.00 in0.0 mm 0.00 in0.0 mm 0.00 in0.0 mm
10:26 AM 48.2°F9.0°C 29.9°F-1.2°C 49% 3.2 mph SSE5.1 kmh SSE 15.0 mph24.1 kmh 30.38 in1028.8 mb 0.00 in0.0 mm 0.00 in0.0 mm 0.00 in0.0 mm
10:31 AM 49.0°F9.4°C 30.1°F-1.1°C 48% 3.1 mph S5.0 kmh S 15.0 mph24.1 kmh 30.38 in1028.8 mb 0.00 in0.0 mm 0.00 in0.0 mm 0.00 in0.0 mm
10:36 AM 49.6°F9.8°C 30.1°F-1.1°C 47% 2.6 mph SSE4.2 kmh SSE 15.0 mph24.1 kmh 30.38 in1028.8 mb 0.00 in0.0 mm 0.00 in0.0 mm 0.00 in0.0 mm
10:41 AM 50.2°F10.1°C 30.1°F-1.1°C 46% 3.8 mph SSW6.1 kmh SSW 10.0 mph16.1 kmh 30.38 in1028.8 mb 0.00 in0.0 mm 0.00 in0.0 mm 0.00 in0.0 mm
10:46 AM 50.5°F10.3°C 29.3°F-1.5°C 44% 5.2 mph S8.4 kmh S 9.0 mph14.5 kmh 30.38 in1028.8 mb 0.00 in0.0 mm 0.00 in0.0 mm 0.00 in0.0 mm
10:51 AM 50.8°F10.4°C 30.1°F-1.1°C 45% 3.9 mph S6.3 kmh S 9.0 mph14.5 kmh 30.38 in1028.8 mb 0.00 in0.0 mm 0.00 in0.0 mm 0.00 in0.0 mm
10:56 AM 51.3°F10.7°C 30.1°F-1.1°C 44% 3.4 mph S5.5 kmh S 9.0 mph14.5 kmh 30.37 in1028.4 mb 0.00 in0.0 mm 0.00 in0.0 mm 0.00 in0.0 mm
11:01 AM 51.9°F11.1°C 30.5°F-0.8°C 44% 4.2 mph SSE6.8 kmh SSE 9.0 mph14.5 kmh 30.37 in1028.4 mb 0.00 in0.0 mm 0.00 in0.0 mm 0.00 in0.0 mm
11:06 AM 52.5°F11.4°C 30.5°F-0.8°C 43% 2.9 mph SSE4.7 kmh SSE 9.0 mph14.5 kmh 30.36 in1028.1 mb 0.00 in0.0 mm 0.00 in0.0 mm 0.00 in0.0 mm
11:11 AM 53.0°F11.7°C 30.4°F-0.9°C 42% 4.9 mph S7.9 kmh S 12.0 mph19.3 kmh 30.36 in1028.1 mb 0.00 in0.0 mm 0.00 in0.0 mm 0.00 in0.0 mm
11:16 AM 53.0°F11.7°C 29.9°F-1.2°C 41% 6.7 mph S10.8 kmh S 13.0 mph20.9 kmh 30.36 in1028.1 mb 0.00 in0.0 mm 0.00 in0.0 mm 0.00 in0.0 mm
11:21 AM 53.2°F11.8°C 30.5°F-0.8°C 42% 4.3 mph S6.9 kmh S 13.0 mph20.9 kmh 30.36 in1028.1 mb 0.00 in0.0 mm 0.00 in0.0 mm 0.00 in0.0 mm
11:26 AM 53.9°F12.2°C 30.6°F-0.8°C 41% 6.2 mph S10.0 kmh S 13.0 mph20.9 kmh 30.36 in1028.1 mb 0.00 in0.0 mm 0.00 in0.0 mm 0.00 in0.0 mm
11:31 AM 54.3°F12.4°C 30.3°F-0.9°C 40% 4.0 mph S6.4 kmh S 13.0 mph20.9 kmh 30.37 in1028.4 mb 0.00 in0.0 mm 0.00 in0.0 mm 0.00 in0.0 mm
11:37 AM 54.6°F12.6°C 29.9°F-1.2°C 39% 2.8 mph S4.5 kmh S 12.0 mph19.3 kmh 30.37 in1028.4 mb 0.00 in0.0 mm 0.00 in0.0 mm 0.00 in0.0 mm
11:41 AM 55.1°F12.8°C 31.0°F-0.6°C 40% 3.1 mph SSE5.0 kmh SSE 10.0 mph16.1 kmh 30.37 in1028.4 mb 0.00 in0.0 mm 0.00 in0.0 mm 0.00 in0.0 mm
11:46 AM 55.6°F13.1°C 32.2°F0.1°C 41% 1.7 mph S2.7 kmh S 8.0 mph12.9 kmh 30.36 in1028.1 mb 0.00 in0.0 mm 0.00 in0.0 mm 0.00 in0.0 mm
11:51 AM 56.0°F13.3°C 31.8°F-0.1°C 40% 1.8 mph S2.9 kmh S 9.0 mph14.5 kmh 30.36 in1028.1 mb 0.00 in0.0 mm 0.00 in0.0 mm 0.00 in0.0 mm
11:56 AM 56.3°F13.5°C 32.1°F0.1°C 40% 2.2 mph S3.5 kmh S 9.0 mph14.5 kmh 30.36 in1028.1 mb 0.00 in0.0 mm 0.00 in0.0 mm 0.00 in0.0 mm
12:01 PM 56.6°F13.7°C 33.0°F0.6°C 41% 2.7 mph S4.3 kmh S 9.0 mph14.5 kmh 30.36 in1028.1 mb 0.00 in0.0 mm 0.00 in0.0 mm 0.00 in0.0 mm
12:06 PM 57.2°F14.0°C 32.9°F0.5°C 40% 1.7 mph S2.7 kmh S 9.0 mph14.5 kmh 30.36 in1028.1 mb 0.00 in0.0 mm 0.00 in0.0 mm 0.00 in0.0 mm
12:12 PM 57.6°F14.2°C 34.1°F1.2°C 41% 1.0 mph E1.6 kmh E 5.0 mph8.0 kmh 30.35 in1027.8 mb 0.00 in0.0 mm 0.00 in0.0 mm 0.00 in0.0 mm
12:17 PM 57.7°F14.3°C 34.0°F1.1°C 41% 1.5 mph S2.4 kmh S 5.0 mph8.0 kmh 30.35 in1027.8 mb 0.00 in0.0 mm 0.00 in0.0 mm 0.00 in0.0 mm
12:22 PM 58.3°F14.6°C 35.2°F1.8°C 42% 1.8 mph SE2.9 kmh SE 5.0 mph8.0 kmh 30.35 in1027.8 mb 0.00 in0.0 mm 0.00 in0.0 mm 0.00 in0.0 mm
12:27 PM 58.4°F14.7°C 36.5°F2.5°C 44% 1.0 mph SE1.6 kmh SE 5.0 mph8.0 kmh 30.34 in1027.4 mb 0.00 in0.0 mm 0.00 in0.0 mm 0.00 in0.0 mm
12:32 PM 58.9°F14.9°C 36.3°F2.4°C 43% 4.2 mph SW6.8 kmh SW 7.0 mph11.3 kmh 30.34 in1027.4 mb 0.00 in0.0 mm 0.00 in0.0 mm 0.00 in0.0 mm
12:37 PM 58.8°F14.9°C 37.5°F3.1°C 45% 3.5 mph SW5.6 kmh SW 7.0 mph11.3 kmh 30.34 in1027.4 mb 0.00 in0.0 mm 0.00 in0.0 mm 0.00 in0.0 mm
12:42 PM 58.9°F14.9°C 39.2°F4.0°C 48% 2.7 mph SW4.3 kmh SW 9.0 mph14.5 kmh 30.33 in1027.1 mb 0.00 in0.0 mm 0.00 in0.0 mm 0.00 in0.0 mm
12:47 PM 59.4°F15.2°C 39.1°F3.9°C 47% 3.4 mph SW5.5 kmh SW 9.0 mph14.5 kmh 30.33 in1027.1 mb 0.00 in0.0 mm 0.00 in0.0 mm 0.00 in0.0 mm
12:52 PM 59.4°F15.2°C 40.8°F4.9°C 50% 3.1 mph S5.0 kmh S 9.0 mph14.5 kmh 30.33 in1027.1 mb 0.00 in0.0 mm 0.00 in0.0 mm 0.00 in0.0 mm
12:57 PM 59.6°F15.3°C 40.9°F4.9°C 50% 3.3 mph SSE5.3 kmh SSE 9.0 mph14.5 kmh 30.33 in1027.1 mb 0.00 in0.0 mm 0.00 in0.0 mm 0.00 in0.0 mm
01:02 PM 59.8°F15.4°C 40.0°F4.4°C 48% 3.6 mph SSW5.8 kmh SSW 9.0 mph14.5 kmh 30.33 in1027.1 mb 0.00 in0.0 mm 0.00 in0.0 mm 0.00 in0.0 mm
01:07 PM 59.8°F15.4°C 40.6°F4.8°C 49% 2.3 mph S3.7 kmh S 9.0 mph14.5 kmh 30.32 in1026.8 mb 0.00 in0.0 mm 0.00 in0.0 mm 0.00 in0.0 mm
01:12 PM 59.9°F15.5°C 40.7°F4.8°C 49% 2.2 mph S3.5 kmh S 8.0 mph12.9 kmh 30.32 in1026.8 mb 0.00 in0.0 mm 0.00 in0.0 mm 0.00 in0.0 mm
01:17 PM 59.6°F15.3°C 39.9°F4.4°C 48% 4.3 mph SW6.9 kmh SW 9.0 mph14.5 kmh 30.32 in1026.8 mb 0.00 in0.0 mm 0.00 in0.0 mm 0.00 in0.0 mm
01:22 PM 59.9°F15.5°C 41.2°F5.1°C 50% 2.9 mph SW4.7 kmh SW 9.0 mph14.5 kmh 30.32 in1026.8 mb 0.00 in0.0 mm 0.00 in0.0 mm 0.00 in0.0 mm
01:27 PM 60.1°F15.6°C 40.9°F4.9°C 49% 3.1 mph SW5.0 kmh SW 9.0 mph14.5 kmh 30.31 in1026.4 mb 0.00 in0.0 mm 0.00 in0.0 mm 0.00 in0.0 mm
01:32 PM 60.1°F15.6°C 40.9°F4.9°C 49% 2.3 mph SW3.7 kmh SW 9.0 mph14.5 kmh 30.31 in1026.4 mb 0.00 in0.0 mm 0.00 in0.0 mm 0.00 in0.0 mm
01:37 PM 60.4°F15.8°C 41.1°F5.1°C 49% 2.4 mph SW3.9 kmh SW 9.0 mph14.5 kmh 30.30 in1026.1 mb 0.00 in0.0 mm 0.00 in0.0 mm 0.00 in0.0 mm
01:42 PM 60.7°F15.9°C 40.9°F4.9°C 48% 3.6 mph SW5.8 kmh SW 8.0 mph12.9 kmh 30.30 in1026.1 mb 0.00 in0.0 mm 0.00 in0.0 mm 0.00 in0.0 mm
01:47 PM 60.9°F16.1°C 41.6°F5.3°C 49% 2.4 mph SSE3.9 kmh SSE 8.0 mph12.9 kmh 30.30 in1026.1 mb 0.00 in0.0 mm 0.00 in0.0 mm 0.00 in0.0 mm
01:52 PM 61.3°F16.3°C 41.4°F5.2°C 48% 2.5 mph SW4.0 kmh SW 8.0 mph12.9 kmh 30.30 in1026.1 mb 0.00 in0.0 mm 0.00 in0.0 mm 0.00 in0.0 mm
01:57 PM 61.2°F16.2°C 41.3°F5.2°C 48% 3.9 mph SW6.3 kmh SW 8.0 mph12.9 kmh 30.30 in1026.1 mb 0.00 in0.0 mm 0.00 in0.0 mm 0.00 in0.0 mm
02:02 PM 61.3°F16.3°C 40.9°F4.9°C 47% 3.7 mph WSW6.0 kmh WSW 8.0 mph12.9 kmh 30.30 in1026.1 mb 0.00 in0.0 mm 0.00 in0.0 mm 0.00 in0.0 mm
02:07 PM 61.1°F16.2°C 40.1°F4.5°C 46% 4.1 mph SW6.6 kmh SW 11.0 mph17.7 kmh 30.29 in1025.7 mb 0.00 in0.0 mm 0.00 in0.0 mm 0.00 in0.0 mm
02:12 PM 61.5°F16.4°C 41.0°F5.0°C 47% 3.8 mph WSW6.1 kmh WSW 11.0 mph17.7 kmh 30.29 in1025.7 mb 0.00 in0.0 mm 0.00 in0.0 mm 0.00 in0.0 mm
02:17 PM 62.1°F16.7°C 41.6°F5.3°C 47% 2.1 mph SW3.4 kmh SW 11.0 mph17.7 kmh 30.29 in1025.7 mb 0.00 in0.0 mm 0.00 in0.0 mm 0.00 in0.0 mm
02:22 PM 62.4°F16.9°C 41.3°F5.2°C 46% 1.7 mph WSW2.7 kmh WSW 11.0 mph17.7 kmh 30.28 in1025.4 mb 0.00 in0.0 mm 0.00 in0.0 mm 0.00 in0.0 mm
02:27 PM 62.8°F17.1°C 41.1°F5.1°C 45% 1.3 mph SW2.1 kmh SW 7.0 mph11.3 kmh 30.28 in1025.4 mb 0.00 in0.0 mm 0.00 in0.0 mm 0.00 in0.0 mm
02:32 PM 62.6°F17.0°C 40.3°F4.6°C 44% 3.2 mph WSW5.1 kmh WSW 6.0 mph9.7 kmh 30.28 in1025.4 mb 0.00 in0.0 mm 0.00 in0.0 mm 0.00 in0.0 mm
02:37 PM 62.5°F16.9°C 40.8°F4.9°C 45% 1.2 mph WSW1.9 kmh WSW 6.0 mph9.7 kmh 30.28 in1025.4 mb 0.00 in0.0 mm 0.00 in0.0 mm 0.00 in0.0 mm
02:42 PM 62.9°F17.2°C 41.8°F5.4°C 46% 1.6 mph SW2.6 kmh SW 6.0 mph9.7 kmh 30.27 in1025.1 mb 0.00 in0.0 mm 0.00 in0.0 mm 0.00 in0.0 mm
02:47 PM 62.6°F17.0°C 40.9°F4.9°C 45% 2.3 mph WSW3.7 kmh WSW 6.0 mph9.7 kmh 30.27 in1025.1 mb 0.00 in0.0 mm 0.00 in0.0 mm 0.00 in0.0 mm
02:52 PM 62.4°F16.9°C 41.3°F5.2°C 46% 1.2 mph SW1.9 kmh SW 6.0 mph9.7 kmh 30.27 in1025.1 mb 0.00 in0.0 mm 0.00 in0.0 mm 0.00 in0.0 mm
02:57 PM 62.7°F17.1°C 41.0°F5.0°C 45% 1.1 mph WSW1.8 kmh WSW 6.0 mph9.7 kmh 30.27 in1025.1 mb 0.00 in0.0 mm 0.00 in0.0 mm 0.00 in0.0 mm
03:02 PM 62.8°F17.1°C 41.1°F5.1°C 45% 3.5 mph S5.6 kmh S 6.0 mph9.7 kmh 30.27 in1025.1 mb 0.00 in0.0 mm 0.00 in0.0 mm 0.00 in0.0 mm
03:07 PM 62.9°F17.2°C 41.2°F5.1°C 45% 1.6 mph WSW2.6 kmh WSW 6.0 mph9.7 kmh 30.27 in1025.1 mb 0.00 in0.0 mm 0.00 in0.0 mm 0.00 in0.0 mm
03:12 PM 63.1°F17.3°C 42.0°F5.6°C 46% 2.3 mph SW3.7 kmh SW 6.0 mph9.7 kmh 30.27 in1025.1 mb 0.00 in0.0 mm 0.00 in0.0 mm 0.00 in0.0 mm
03:17 PM 62.9°F17.2°C 41.2°F5.1°C 45% 1.0 mph SE1.6 kmh SE 6.0 mph9.7 kmh 30.27 in1025.1 mb 0.00 in0.0 mm 0.00 in0.0 mm 0.00 in0.0 mm
03:22 PM 63.0°F17.2°C 40.7°F4.8°C 44% 1.4 mph S2.3 kmh S 6.0 mph9.7 kmh 30.27 in1025.1 mb 0.00 in0.0 mm 0.00 in0.0 mm 0.00 in0.0 mm
03:27 PM 63.1°F17.3°C 41.4°F5.2°C 45% 1.9 mph SE3.1 kmh SE 6.0 mph9.7 kmh 30.27 in1025.1 mb 0.00 in0.0 mm 0.00 in0.0 mm 0.00 in0.0 mm
03:32 PM 63.0°F17.2°C 41.3°F5.2°C 45% 2.2 mph SSW3.5 kmh SSW 6.0 mph9.7 kmh 30.27 in1025.1 mb 0.00 in0.0 mm 0.00 in0.0 mm 0.00 in0.0 mm
03:37 PM 62.9°F17.2°C 41.2°F5.1°C 45% 2.2 mph SW3.5 kmh SW 5.0 mph8.0 kmh 30.27 in1025.1 mb 0.00 in0.0 mm 0.00 in0.0 mm 0.00 in0.0 mm
03:42 PM 63.3°F17.4°C 41.5°F5.3°C 45% 2.1 mph SE3.4 kmh SE 5.0 mph8.0 kmh 30.27 in1025.1 mb 0.00 in0.0 mm 0.00 in0.0 mm 0.00 in0.0 mm
03:47 PM 63.6°F17.6°C 42.4°F5.8°C 46% 1.0 mph E1.6 kmh E 5.0 mph8.0 kmh 30.27 in1025.1 mb 0.00 in0.0 mm 0.00 in0.0 mm 0.00 in0.0 mm
03:52 PM 63.3°F17.4°C 41.5°F5.3°C 45% 1.9 mph NE3.1 kmh NE 4.0 mph6.4 kmh 30.27 in1025.1 mb 0.00 in0.0 mm 0.00 in0.0 mm 0.00 in0.0 mm
03:57 PM 63.1°F17.3°C 41.9°F5.5°C 46% 1.3 mph NE2.1 kmh NE 5.0 mph8.0 kmh 30.27 in1025.1 mb 0.00 in0.0 mm 0.00 in0.0 mm 0.00 in0.0 mm
04:02 PM 63.2°F17.3°C 42.0°F5.6°C 46% 1.5 mph NE2.4 kmh NE 5.0 mph8.0 kmh 30.28 in1025.4 mb 0.00 in0.0 mm 0.00 in0.0 mm 0.00 in0.0 mm
04:07 PM 63.3°F17.4°C 42.7°F5.9°C 47% 1.3 mph E2.1 kmh E 5.0 mph8.0 kmh 30.28 in1025.4 mb 0.00 in0.0 mm 0.00 in0.0 mm 0.00 in0.0 mm
04:12 PM 63.7°F17.6°C 42.5°F5.8°C 46% 1.0 mph N1.6 kmh N 5.0 mph8.0 kmh 30.27 in1025.1 mb 0.00 in0.0 mm 0.00 in0.0 mm 0.00 in0.0 mm
04:17 PM 64.4°F18.0°C 42.5°F5.8°C 45% 1.0 mph WNW1.6 kmh WNW 3.0 mph4.8 kmh 30.28 in1025.4 mb 0.00 in0.0 mm 0.00 in0.0 mm 0.00 in0.0 mm
04:22 PM 64.2°F17.9°C 42.4°F5.8°C 45% 1.1 mph W1.8 kmh W 3.0 mph4.8 kmh 30.28 in1025.4 mb 0.00 in0.0 mm 0.00 in0.0 mm 0.00 in0.0 mm
04:27 PM 64.6°F18.1°C 42.1°F5.6°C 44% 1.8 mph SW2.9 kmh SW 4.0 mph6.4 kmh 30.28 in1025.4 mb 0.00 in0.0 mm 0.00 in0.0 mm 0.00 in0.0 mm
04:32 PM 64.3°F17.9°C 41.8°F5.4°C 44% 4.4 mph SW7.1 kmh SW 6.0 mph9.7 kmh 30.28 in1025.4 mb 0.00 in0.0 mm 0.00 in0.0 mm 0.00 in0.0 mm
04:37 PM 64.2°F17.9°C 42.4°F5.8°C 45% Calm Calm 6.0 mph9.7 kmh 30.27 in1025.1 mb 0.00 in0.0 mm 0.00 in0.0 mm 0.00 in0.0 mm
04:42 PM 64.8°F18.2°C 42.3°F5.7°C 44% 1.4 mph SSE2.3 kmh SSE 6.0 mph9.7 kmh 30.27 in1025.1 mb 0.00 in0.0 mm 0.00 in0.0 mm 0.00 in0.0 mm
04:47 PM 64.6°F18.1°C 41.6°F5.3°C 43% 2.6 mph SW4.2 kmh SW 6.0 mph9.7 kmh 30.28 in1025.4 mb 0.00 in0.0 mm 0.00 in0.0 mm 0.00 in0.0 mm
04:52 PM 64.2°F17.9°C 41.8°F5.4°C 44% 1.9 mph WSW3.1 kmh WSW 6.0 mph9.7 kmh 30.28 in1025.4 mb 0.00 in0.0 mm 0.00 in0.0 mm 0.00 in0.0 mm
04:57 PM 64.1°F17.8°C 41.1°F5.1°C 43% 1.4 mph WSW2.3 kmh WSW 6.0 mph9.7 kmh 30.28 in1025.4 mb 0.00 in0.0 mm 0.00 in0.0 mm 0.00 in0.0 mm
05:02 PM 64.0°F17.8°C 41.6°F5.3°C 44% 1.0 mph WNW1.6 kmh WNW 6.0 mph9.7 kmh 30.28 in1025.4 mb 0.00 in0.0 mm 0.00 in0.0 mm 0.00 in0.0 mm
05:07 PM 64.3°F17.9°C 41.8°F5.4°C 44% 1.0 mph SW1.6 kmh SW 6.0 mph9.7 kmh 30.27 in1025.1 mb 0.00 in0.0 mm 0.00 in0.0 mm 0.00 in0.0 mm
05:12 PM 64.5°F18.1°C 42.0°F5.6°C 44% Calm Calm 3.0 mph4.8 kmh 30.27 in1025.1 mb 0.00 in0.0 mm 0.00 in0.0 mm 0.00 in0.0 mm
05:17 PM 64.8°F18.2°C 42.4°F5.8°C 44% Calm Calm 3.0 mph4.8 kmh 30.27 in1025.1 mb 0.00 in0.0 mm 0.00 in0.0 mm 0.00 in0.0 mm
05:22 PM 65.0°F18.3°C 41.9°F5.5°C 43% Calm Calm 2.0 mph3.2 kmh 30.27 in1025.1 mb 0.00 in0.0 mm 0.00 in0.0 mm 0.00 in0.0 mm
05:27 PM 64.7°F18.2°C 41.0°F5.0°C 42% Calm Calm 2.0 mph3.2 kmh 30.27 in1025.1 mb 0.00 in0.0 mm 0.00 in0.0 mm 0.00 in0.0 mm
05:32 PM 64.9°F18.3°C 41.1°F5.1°C 42% Calm Calm 2.0 mph3.2 kmh 30.27 in1025.1 mb 0.00 in0.0 mm 0.00 in0.0 mm 0.00 in0.0 mm
05:37 PM 64.7°F18.2°C 40.4°F4.7°C 41% Calm Calm 2.0 mph3.2 kmh 30.28 in1025.4 mb 0.00 in0.0 mm 0.00 in0.0 mm 0.00 in0.0 mm
05:42 PM 64.2°F17.9°C 40.5°F4.7°C 42% 1.3 mph SE2.1 kmh SE 2.0 mph3.2 kmh 30.28 in1025.4 mb 0.00 in0.0 mm 0.00 in0.0 mm 0.00 in0.0 mm
05:47 PM 63.3°F17.4°C 40.9°F4.9°C 44% Calm Calm 2.0 mph3.2 kmh 30.27 in1025.1 mb 0.00 in0.0 mm 0.00 in0.0 mm 0.00 in0.0 mm
05:52 PM 62.8°F17.1°C 41.1°F5.1°C 45% Calm Calm 2.0 mph3.2 kmh 30.28 in1025.4 mb 0.00 in0.0 mm 0.00 in0.0 mm 0.00 in0.0 mm
05:57 PM 62.4°F16.9°C 41.3°F5.2°C 46% Calm Calm 2.0 mph3.2 kmh 30.28 in1025.4 mb 0.00 in0.0 mm 0.00 in0.0 mm 0.00 in0.0 mm
06:02 PM 61.9°F16.6°C 41.4°F5.2°C 47% Calm Calm 1.0 mph1.6 kmh 30.28 in1025.4 mb 0.00 in0.0 mm 0.00 in0.0 mm 0.00 in0.0 mm
06:07 PM 61.5°F16.4°C 41.6°F5.3°C 48% Calm Calm 1.0 mph1.6 kmh 30.29 in1025.7 mb 0.00 in0.0 mm 0.00 in0.0 mm 0.00 in0.0 mm
06:12 PM 61.1°F16.2°C 41.8°F5.4°C 49% Calm Calm -- 30.28 in1025.4 mb 0.00 in0.0 mm 0.00 in0.0 mm 0.00 in0.0 mm
06:17 PM 60.8°F16.0°C 42.1°F5.6°C 50% Calm Calm -- 30.29 in1025.7 mb 0.00 in0.0 mm 0.00 in0.0 mm 0.00 in0.0 mm
06:22 PM 60.4°F15.8°C 41.7°F5.4°C 50% Calm Calm -- 30.29 in1025.7 mb 0.00 in0.0 mm 0.00 in0.0 mm 0.00 in0.0 mm
06:27 PM 59.9°F15.5°C 42.3°F5.7°C 52% Calm Calm -- 30.29 in1025.7 mb 0.00 in0.0 mm 0.00 in0.0 mm 0.00 in0.0 mm
06:32 PM 59.3°F15.2°C 42.7°F5.9°C 54% Calm Calm -- 30.30 in1026.1 mb 0.00 in0.0 mm 0.00 in0.0 mm 0.00 in0.0 mm
06:37 PM 58.8°F14.9°C 42.7°F5.9°C 55% Calm Calm -- 30.30 in1026.1 mb 0.00 in0.0 mm 0.00 in0.0 mm 0.00 in0.0 mm
06:42 PM 58.6°F14.8°C 43.0°F6.1°C 56% Calm Calm -- 30.30 in1026.1 mb 0.00 in0.0 mm 0.00 in0.0 mm 0.00 in0.0 mm
06:47 PM 58.4°F14.7°C 43.2°F6.2°C 57% 1.9 mph E3.1 kmh E 3.0 mph4.8 kmh 30.30 in1026.1 mb 0.00 in0.0 mm 0.00 in0.0 mm 0.00 in0.0 mm
06:52 PM 58.7°F14.8°C 43.1°F6.2°C 56% 1.0 mph ESE1.6 kmh ESE 3.0 mph4.8 kmh 30.30 in1026.1 mb 0.00 in0.0 mm 0.00 in0.0 mm 0.00 in0.0 mm
06:57 PM 58.7°F14.8°C 43.6°F6.4°C 57% 1.0 mph ESE1.6 kmh ESE 3.0 mph4.8 kmh 30.30 in1026.1 mb 0.00 in0.0 mm 0.00 in0.0 mm 0.00 in0.0 mm
07:02 PM 58.8°F14.9°C 43.7°F6.5°C 57% Calm Calm 3.0 mph4.8 kmh 30.30 in1026.1 mb 0.00 in0.0 mm 0.00 in0.0 mm 0.00 in0.0 mm
07:07 PM 58.7°F14.8°C 43.6°F6.4°C 57% Calm Calm 2.0 mph3.2 kmh 30.30 in1026.1 mb 0.00 in0.0 mm 0.00 in0.0 mm 0.00 in0.0 mm
07:12 PM 58.5°F14.7°C 43.4°F6.3°C 57% 1.0 mph SE1.6 kmh SE 1.0 mph1.6 kmh 30.30 in1026.1 mb 0.00 in0.0 mm 0.00 in0.0 mm 0.00 in0.0 mm
07:17 PM 58.2°F14.6°C 43.6°F6.4°C 58% 1.0 mph SE1.6 kmh SE 1.0 mph1.6 kmh 30.30 in1026.1 mb 0.00 in0.0 mm 0.00 in0.0 mm 0.00 in0.0 mm
07:22 PM 58.0°F14.4°C 43.4°F6.3°C 58% Calm Calm 1.0 mph1.6 kmh 30.30 in1026.1 mb 0.00 in0.0 mm 0.00 in0.0 mm 0.00 in0.0 mm
07:27 PM 57.5°F14.2°C 43.3°F6.3°C 59% Calm Calm 1.0 mph1.6 kmh 30.30 in1026.1 mb 0.00 in0.0 mm 0.00 in0.0 mm 0.00 in0.0 mm
07:32 PM 57.0°F13.9°C 43.4°F6.3°C 60% 1.1 mph N1.8 kmh N 2.0 mph3.2 kmh 30.31 in1026.4 mb 0.00 in0.0 mm 0.00 in0.0 mm 0.00 in0.0 mm
07:37 PM 56.0°F13.3°C 42.4°F5.8°C 60% Calm Calm 3.0 mph4.8 kmh 30.31 in1026.4 mb 0.00 in0.0 mm 0.00 in0.0 mm 0.00 in0.0 mm
07:42 PM 55.3°F12.9°C 41.3°F5.2°C 59% 1.4 mph N2.3 kmh N 3.0 mph4.8 kmh 30.31 in1026.4 mb 0.00 in0.0 mm 0.00 in0.0 mm 0.00 in0.0 mm
07:47 PM 55.1°F12.8°C 40.2°F4.6°C 57% 1.4 mph 2.3 kmh 3.0 mph4.8 kmh 30.31 in1026.4 mb 0.00 in0.0 mm 0.00 in0.0 mm 0.00 in0.0 mm
07:52 PM 55.3°F12.9°C 39.9°F4.4°C 56% 1.1 mph N1.8 kmh N 2.0 mph3.2 kmh 30.32 in1026.8 mb 0.00 in0.0 mm 0.00 in0.0 mm 0.00 in0.0 mm
07:57 PM 55.3°F12.9°C 39.4°F4.1°C 55% 1.3 mph N2.1 kmh N 2.0 mph3.2 kmh 30.32 in1026.8 mb 0.00 in0.0 mm 0.00 in0.0 mm 0.00 in0.0 mm
08:02 PM 55.2°F12.9°C 39.4°F4.1°C 55% 2.2 mph NE3.5 kmh NE 4.0 mph6.4 kmh 30.32 in1026.8 mb 0.00 in0.0 mm 0.00 in0.0 mm 0.00 in0.0 mm
08:07 PM 55.3°F12.9°C 39.5°F4.2°C 55% 3.2 mph NE5.1 kmh NE 8.0 mph12.9 kmh 30.32 in1026.8 mb 0.00 in0.0 mm 0.00 in0.0 mm 0.00 in0.0 mm
08:12 PM 55.2°F12.9°C 39.4°F4.1°C 55% 1.9 mph NE3.1 kmh NE 8.0 mph12.9 kmh 30.32 in1026.8 mb 0.00 in0.0 mm 0.00 in0.0 mm 0.00 in0.0 mm
08:17 PM 55.2°F12.9°C 38.9°F3.8°C 54% 2.2 mph NE3.5 kmh NE 8.0 mph12.9 kmh 30.32 in1026.8 mb 0.00 in0.0 mm 0.00 in0.0 mm 0.00 in0.0 mm
08:22 PM 55.2°F12.9°C 38.8°F3.8°C 54% 3.6 mph ENE5.8 kmh ENE 8.0 mph12.9 kmh 30.32 in1026.8 mb 0.00 in0.0 mm 0.00 in0.0 mm 0.00 in0.0 mm
08:27 PM 55.2°F12.9°C 38.4°F3.6°C 53% 3.0 mph ENE4.8 kmh ENE 6.0 mph9.7 kmh 30.32 in1026.8 mb 0.00 in0.0 mm 0.00 in0.0 mm 0.00 in0.0 mm
08:32 PM 55.1°F12.8°C 38.3°F3.5°C 53% 3.5 mph ENE5.6 kmh ENE 7.0 mph11.3 kmh 30.32 in1026.8 mb 0.00 in0.0 mm 0.00 in0.0 mm 0.00 in0.0 mm
08:37 PM 55.1°F12.8°C 38.3°F3.5°C 53% 3.3 mph ENE5.3 kmh ENE 7.0 mph11.3 kmh 30.32 in1026.8 mb 0.00 in0.0 mm 0.00 in0.0 mm 0.00 in0.0 mm
08:42 PM 55.0°F12.8°C 38.2°F3.4°C 53% 2.6 mph ENE4.2 kmh ENE 7.0 mph11.3 kmh 30.33 in1027.1 mb 0.00 in0.0 mm 0.00 in0.0 mm 0.00 in0.0 mm
08:47 PM 54.8°F12.7°C 38.0°F3.3°C 53% 1.5 mph E2.4 kmh E 7.0 mph11.3 kmh 30.33 in1027.1 mb 0.00 in0.0 mm 0.00 in0.0 mm 0.00 in0.0 mm
08:52 PM 54.7°F12.6°C 38.4°F3.6°C 54% 2.3 mph E3.7 kmh E 7.0 mph11.3 kmh 30.33 in1027.1 mb 0.00 in0.0 mm 0.00 in0.0 mm 0.00 in0.0 mm
08:57 PM 54.5°F12.5°C 38.2°F3.4°C 54% 3.2 mph ENE5.1 kmh ENE 5.0 mph8.0 kmh 30.33 in1027.1 mb 0.00 in0.0 mm 0.00 in0.0 mm 0.00 in0.0 mm
09:02 PM 54.3°F12.4°C 38.5°F3.6°C 55% 2.6 mph ENE4.2 kmh ENE 5.0 mph8.0 kmh 30.32 in1026.8 mb 0.00 in0.0 mm 0.00 in0.0 mm 0.00 in0.0 mm
09:07 PM 54.2°F12.3°C 38.4°F3.6°C 55% 1.7 mph E2.7 kmh E 5.0 mph8.0 kmh 30.33 in1027.1 mb 0.00 in0.0 mm 0.00 in0.0 mm 0.00 in0.0 mm
09:12 PM 54.1°F12.3°C 38.8°F3.8°C 56% 2.0 mph E3.2 kmh E 5.0 mph8.0 kmh 30.33 in1027.1 mb 0.00 in0.0 mm 0.00 in0.0 mm 0.00 in0.0 mm
09:17 PM 54.0°F12.2°C 38.7°F3.7°C 56% 2.2 mph ENE3.5 kmh ENE 5.0 mph8.0 kmh 30.33 in1027.1 mb 0.00 in0.0 mm 0.00 in0.0 mm 0.00 in0.0 mm
09:22 PM 53.9°F12.2°C 38.6°F3.7°C 56% 2.0 mph E3.2 kmh E 4.0 mph6.4 kmh 30.33 in1027.1 mb 0.00 in0.0 mm 0.00 in0.0 mm 0.00 in0.0 mm
09:27 PM 53.7°F12.1°C 38.4°F3.6°C 56% 2.0 mph E3.2 kmh E 3.0 mph4.8 kmh 30.33 in1027.1 mb 0.00 in0.0 mm 0.00 in0.0 mm 0.00 in0.0 mm
09:32 PM 53.7°F12.1°C 38.8°F3.8°C 57% 1.6 mph ENE2.6 kmh ENE 3.0 mph4.8 kmh 30.33 in1027.1 mb 0.00 in0.0 mm 0.00 in0.0 mm 0.00 in0.0 mm
09:37 PM 53.6°F12.0°C 38.8°F3.8°C 57% 1.7 mph ENE2.7 kmh ENE 3.0 mph4.8 kmh 30.33 in1027.1 mb 0.00 in0.0 mm 0.00 in0.0 mm 0.00 in0.0 mm
09:42 PM 53.6°F12.0°C 38.7°F3.7°C 57% 1.7 mph ENE2.7 kmh ENE 3.0 mph4.8 kmh 30.33 in1027.1 mb 0.00 in0.0 mm 0.00 in0.0 mm 0.00 in0.0 mm
09:47 PM 53.6°F12.0°C 38.8°F3.8°C 57% 1.4 mph E2.3 kmh E 3.0 mph4.8 kmh 30.32 in1026.8 mb 0.00 in0.0 mm 0.00 in0.0 mm 0.00 in0.0 mm
09:52 PM 53.6°F12.0°C 38.3°F3.5°C 56% 2.5 mph ENE4.0 kmh ENE 3.0 mph4.8 kmh 30.32 in1026.8 mb 0.00 in0.0 mm 0.00 in0.0 mm 0.00 in0.0 mm
09:57 PM 53.5°F11.9°C 38.7°F3.7°C 57% 2.6 mph E4.2 kmh E 4.0 mph6.4 kmh 30.32 in1026.8 mb 0.00 in0.0 mm 0.00 in0.0 mm 0.00 in0.0 mm
10:02 PM 53.3°F11.8°C 38.4°F3.6°C 57% 2.2 mph E3.5 kmh E 4.0 mph6.4 kmh 30.32 in1026.8 mb 0.00 in0.0 mm 0.00 in0.0 mm 0.00 in0.0 mm
10:07 PM 53.1°F11.7°C 38.3°F3.5°C 57% 1.7 mph E2.7 kmh E 4.0 mph6.4 kmh 30.32 in1026.8 mb 0.00 in0.0 mm 0.00 in0.0 mm 0.00 in0.0 mm
10:12 PM 52.9°F11.6°C 38.5°F3.6°C 58% 1.0 mph E1.6 kmh E 4.0 mph6.4 kmh 30.32 in1026.8 mb 0.00 in0.0 mm 0.00 in0.0 mm 0.00 in0.0 mm
10:17 PM 52.7°F11.5°C 38.4°F3.6°C 58% 1.0 mph E1.6 kmh E 4.0 mph6.4 kmh 30.32 in1026.8 mb 0.00 in0.0 mm 0.00 in0.0 mm 0.00 in0.0 mm
10:22 PM 52.6°F11.4°C 38.3°F3.5°C 58% 1.1 mph E1.8 kmh E 3.0 mph4.8 kmh 30.32 in1026.8 mb 0.00 in0.0 mm 0.00 in0.0 mm 0.00 in0.0 mm
10:27 PM 52.5°F11.4°C 38.2°F3.4°C 58% 1.4 mph E2.3 kmh E 2.0 mph3.2 kmh 30.32 in1026.8 mb 0.00 in0.0 mm 0.00 in0.0 mm 0.00 in0.0 mm
10:32 PM 52.5°F11.4°C 38.2°F3.4°C 58% 1.3 mph ESE2.1 kmh ESE 2.0 mph3.2 kmh 30.33 in1027.1 mb 0.00 in0.0 mm 0.00 in0.0 mm 0.00 in0.0 mm
10:37 PM 52.5°F11.4°C 38.1°F3.4°C 58% 1.3 mph ESE2.1 kmh ESE 2.0 mph3.2 kmh 30.33 in1027.1 mb 0.00 in0.0 mm 0.00 in0.0 mm 0.00 in0.0 mm
10:42 PM 52.6°F11.4°C 37.9°F3.3°C 57% 1.8 mph E2.9 kmh E 3.0 mph4.8 kmh 30.33 in1027.1 mb 0.00 in0.0 mm 0.00 in0.0 mm 0.00 in0.0 mm
10:47 PM 52.6°F11.4°C 37.9°F3.3°C 57% 1.8 mph E2.9 kmh E 3.0 mph4.8 kmh 30.32 in1026.8 mb 0.00 in0.0 mm 0.00 in0.0 mm 0.00 in0.0 mm
10:52 PM 52.6°F11.4°C 37.9°F3.3°C 57% 1.4 mph E2.3 kmh E 3.0 mph4.8 kmh 30.32 in1026.8 mb 0.00 in0.0 mm 0.00 in0.0 mm 0.00 in0.0 mm
10:57 PM 52.4°F11.3°C 38.1°F3.4°C 58% 1.4 mph E2.3 kmh E 3.0 mph4.8 kmh 30.32 in1026.8 mb 0.00 in0.0 mm 0.00 in0.0 mm 0.00 in0.0 mm
11:02 PM 52.2°F11.2°C 37.9°F3.3°C 58% 2.2 mph ENE3.5 kmh ENE 4.0 mph6.4 kmh 30.32 in1026.8 mb 0.00 in0.0 mm 0.00 in0.0 mm 0.00 in0.0 mm
11:07 PM 52.0°F11.1°C 38.2°F3.4°C 59% 1.7 mph ENE2.7 kmh ENE 4.0 mph6.4 kmh 30.32 in1026.8 mb 0.00 in0.0 mm 0.00 in0.0 mm 0.00 in0.0 mm
11:12 PM 52.0°F11.1°C 38.2°F3.4°C 59% 1.6 mph ENE2.6 kmh ENE 4.0 mph6.4 kmh 30.32 in1026.8 mb 0.00 in0.0 mm 0.00 in0.0 mm 0.00 in0.0 mm
11:17 PM 51.6°F10.9°C 38.3°F3.5°C 60% 1.7 mph ENE2.7 kmh ENE 4.0 mph6.4 kmh 30.32 in1026.8 mb 0.00 in0.0 mm 0.00 in0.0 mm 0.00 in0.0 mm
11:22 PM 51.5°F10.8°C 38.2°F3.4°C 60% 2.3 mph ENE3.7 kmh ENE 3.0 mph4.8 kmh 30.32 in1026.8 mb 0.00 in0.0 mm 0.00 in0.0 mm 0.00 in0.0 mm
11:27 PM 51.5°F10.8°C 38.2°F3.4°C 60% 1.1 mph ENE1.8 kmh ENE 3.0 mph4.8 kmh 30.32 in1026.8 mb 0.00 in0.0 mm 0.00 in0.0 mm 0.00 in0.0 mm
11:32 PM 51.5°F10.8°C 38.1°F3.4°C 60% 1.0 mph E1.6 kmh E 3.0 mph4.8 kmh 30.32 in1026.8 mb 0.00 in0.0 mm 0.00 in0.0 mm 0.00 in0.0 mm
11:37 PM 51.4°F10.8°C 38.0°F3.3°C 60% Calm Calm 3.0 mph4.8 kmh 30.32 in1026.8 mb 0.00 in0.0 mm 0.00 in0.0 mm 0.00 in0.0 mm
11:42 PM 51.5°F10.8°C 38.2°F3.4°C 60% 1.0 mph E1.6 kmh E 3.0 mph4.8 kmh 30.32 in1026.8 mb 0.00 in0.0 mm 0.00 in0.0 mm 0.00 in0.0 mm
11:47 PM 51.3°F10.7°C 37.9°F3.3°C 60% 1.3 mph SE2.1 kmh SE 3.0 mph4.8 kmh 30.32 in1026.8 mb 0.00 in0.0 mm 0.00 in0.0 mm 0.00 in0.0 mm
11:52 PM 51.3°F10.7°C 38.0°F3.3°C 60% 1.3 mph SE2.1 kmh SE 2.0 mph3.2 kmh 30.32 in1026.8 mb 0.00 in0.0 mm 0.00 in0.0 mm 0.00 in0.0 mm
11:57 PM 51.1°F10.6°C 37.8°F3.2°C 60% Calm Calm 2.0 mph3.2 kmh 30.32 in1026.8 mb 0.00 in0.0 mm 0.00 in0.0 mm 0.00 in0.0 mm